Overview Statistics Trail Chart Weather Telemetry Raw packets
 

This is the latest recevied weather packets stored in our database for station/object K0APR. If no packets are shown the sender has not sent any weather packets the latest 10 day(s).

<< 90 91 92 93 94 95 96 >>
Time Temp. Humidity Pressure Rain* Wind** Luminosity Snow
1788002980 22.22° C 79% 1009.2 hPa 0 mm - 0 W/m² -
1788002680 22.78° C 78% 1009.2 hPa 0 mm - 0 W/m² -
1788002376 22.78° C 77% 1009.2 hPa 0 mm - 0 W/m² -
1788002071 22.78° C 77% 1009.2 hPa 0 mm - 0 W/m² -
1788001770 22.78° C 77% 1008.8 hPa 0 mm - 0 W/m² -
1788001466 22.78° C 75% 1009.2 hPa 0 mm - 0 W/m² -
1788001165 23.33° C 74% 1008.8 hPa 0 mm - 0 W/m² -
1788000861 23.33° C 72% 1008.8 hPa 0 mm - 0 W/m² -
1788000557 23.33° C 71% 1008.8 hPa 0 mm - 0 W/m² -
1788000257 22.78° C 69% 1008.8 hPa 0 mm - 0 W/m² -
1787999952 22.78° C 70% 1008.8 hPa 0 mm - 0 W/m² -
1787999649 21.67° C 75% 1008.4 hPa 0 mm - 0 W/m² -
1787999345 21.11° C 82% 1008.8 hPa 0 mm - 0 W/m² -
1787999044 21.67° C 83% 1008.8 hPa 0 mm - 0 W/m² -
1787998739 21.67° C 81% 1008.8 hPa 0 mm - 0 W/m² -
1787998437 21.11° C 84% 1009.2 hPa 0 mm - 0 W/m² -
1787998132 21.11° C 87% 1009.5 hPa 0 mm - 0 W/m² -
1787997832 20.56° C 89% 1009.5 hPa 0 mm - 0 W/m² -
1787997531 20.56° C 89% 1009.5 hPa 1.78 mm - 0 W/m² -
1787997230 21.11° C 90% 1009.8 hPa 3.05 mm - 0 W/m² -
1787996930 21.67° C 89% 1009.5 hPa 1.27 mm - 0 W/m² -
1787996625 21.67° C 89% 1009.8 hPa 0 mm - 0 W/m² -
1787996320 21.67° C 89% 1010.2 hPa 0 mm - 0 W/m² -
1787996019 21.11° C 90% 1010.5 hPa 0 mm - 0 W/m² -
1787995714 21.11° C 91% 1010.9 hPa 0 mm - 0 W/m² -

* Rain latest hour (hover to see other rain measurements)
** Current wind speed in m/s (hover to see current wind gust speed)